Time;durP1;ratioP1;P1;durP2;ratioP2;P2;SDS_P1;SDS_P2;PMS_P1;PMS_P2;Temp;Humidity;BMP_temperature;BMP_pressure;BME280_temperature;BME280_humidity;BME280_pressure;Samples;Min_cycle;Max_cycle;Signal;HPM_P1;HPM_P2
2021/06/19 00:00:15;;;;;;;7.75;2.70;;;;;;;23.25;57.38;99702.84;5012863;28;20041;-64
2021/06/19 00:02:40;;;;;;;7.57;2.90;;;;;;;23.24;57.61;99701.94;4995187;28;20077;-66
2021/06/19 00:05:09;;;;;;;6.57;2.75;;;;;;;23.23;57.45;99700.22;5012024;28;20096;-63
2021/06/19 00:07:34;;;;;;;9.32;2.53;;;;;;;23.22;57.38;99702.94;4996176;28;20053;-64
2021/06/19 00:10:03;;;;;;;6.70;2.75;;;;;;;23.22;57.37;99713.53;5011676;28;20088;-63
2021/06/19 00:12:29;;;;;;;6.97;2.28;;;;;;;23.19;57.44;99706.56;5013195;28;20042;-64
2021/06/19 00:15:00;;;;;;;6.85;2.25;;;;;;;23.19;57.57;99703.03;5016584;28;20575;-64
2021/06/19 00:17:25;;;;;;;6.38;2.58;;;;;;;23.18;57.58;99714.53;4998779;28;20046;-63
2021/06/19 00:19:51;;;;;;;5.32;1.90;;;;;;;23.16;57.50;99711.97;5017017;28;20045;-65
2021/06/19 00:22:19;;;;;;;4.78;2.08;;;;;;;23.16;57.80;99713.75;5016628;28;20042;-65
2021/06/19 00:24:45;;;;;;;4.47;1.98;;;;;;;23.13;57.66;99712.09;5016170;28;20052;-64
2021/06/19 00:27:13;;;;;;;6.82;2.47;;;;;;;23.12;57.79;99711.22;5016866;28;20046;-64
2021/06/19 00:29:41;;;;;;;3.28;1.95;;;;;;;23.09;57.50;99718.41;4999134;28;20037;-64
2021/06/19 00:32:07;;;;;;;5.45;2.15;;;;;;;23.09;57.85;99713.13;5015079;28;20374;-64
2021/06/19 00:34:35;;;;;;;4.47;1.90;;;;;;;23.07;57.84;99715.84;5016601;28;20037;-65
2021/06/19 00:37:01;;;;;;;2.80;1.80;;;;;;;23.05;57.71;99715.06;5015105;28;20042;-64
2021/06/19 00:39:26;;;;;;;4.20;1.70;;;;;;;23.04;57.92;99718.63;5016583;28;20485;-65
2021/06/19 00:41:52;;;;;;;6.40;1.90;;;;;;;23.02;57.68;99720.47;5015209;28;20397;-63
2021/06/19 00:44:20;;;;;;;3.92;1.60;;;;;;;23.00;57.69;99722.28;5016241;28;20030;-64
2021/06/19 00:46:56;;;;;;;2.38;1.50;;;;;;;22.99;57.83;99728.50;4998292;28;20092;-64
2021/06/19 00:49:23;;;;;;;3.55;1.45;;;;;;;22.98;57.89;99720.66;4999140;28;20042;-64
2021/06/19 00:51:49;;;;;;;4.43;1.52;;;;;;;22.96;58.00;99718.09;4998604;28;20038;-65
2021/06/19 00:54:16;;;;;;;3.55;1.50;;;;;;;22.94;57.80;99728.69;4998533;28;20477;-65
2021/06/19 00:56:42;;;;;;;3.30;1.70;;;;;;;22.93;57.89;99723.47;5014605;28;20042;-63
2021/06/19 00:59:11;;;;;;;3.00;1.55;;;;;;;22.92;57.94;99716.47;4998061;28;20042;-66
2021/06/19 01:01:40;;;;;;;3.13;1.50;;;;;;;22.89;57.91;99728.00;5014576;28;20046;-64
2021/06/19 01:04:12;;;;;;;4.35;1.55;;;;;;;22.88;57.80;99723.69;4998562;28;20034;-66
2021/06/19 01:06:37;;;;;;;3.47;1.30;;;;;;;22.88;58.04;99733.38;4998379;28;20041;-63
2021/06/19 01:09:08;;;;;;;2.08;1.25;;;;;;;22.84;58.12;99729.13;5014216;28;20100;-65
2021/06/19 01:11:38;;;;;;;2.10;1.23;;;;;;;22.83;57.89;99730.03;5015555;28;20543;-64
2021/06/19 01:14:05;;;;;;;1.45;1.25;;;;;;;22.81;58.13;99728.31;4997929;28;20044;-64
2021/06/19 01:16:31;;;;;;;2.38;1.17;;;;;;;22.80;58.06;99723.09;5015375;28;20046;-64
2021/06/19 01:18:57;;;;;;;3.28;1.20;;;;;;;22.79;58.10;99721.38;4998042;28;20567;-63
2021/06/19 01:21:31;;;;;;;2.25;1.10;;;;;;;22.77;58.16;99717.94;5015480;28;20045;-63
2021/06/19 01:24:02;;;;;;;2.25;1.30;;;;;;;22.76;58.12;99719.72;5013882;28;20076;-64
2021/06/19 01:26:31;;;;;;;5.07;1.45;;;;;;;22.74;58.30;99713.66;4997374;28;20041;-64
2021/06/19 01:28:58;;;;;;;1.27;1.15;;;;;;;22.74;58.22;99704.84;4997836;28;20121;-63
2021/06/19 01:31:27;;;;;;;1.98;1.60;;;;;;;22.73;58.31;99717.22;5015285;28;20041;-63
2021/06/19 01:33:59;;;;;;;2.10;1.38;;;;;;;22.71;58.34;99713.75;5014202;28;20124;-64
2021/06/19 01:36:25;;;;;;;2.15;1.25;;;;;;;22.71;58.26;99718.19;5015554;28;20152;-63
2021/06/19 01:38:52;;;;;;;1.42;1.13;;;;;;;22.70;58.23;99712.03;5013959;28;20553;-63
2021/06/19 01:41:27;;;;;;;1.27;1.10;;;;;;;22.68;57.98;99707.75;4997506;28;20037;-64
2021/06/19 01:44:05;;;;;;;1.98;1.52;;;;;;;22.66;58.14;99715.72;5015198;28;20041;-64
2021/06/19 01:46:32;;;;;;;1.52;1.10;;;;;;;22.65;58.32;99719.31;5013711;28;20046;-65
2021/06/19 01:49:01;;;;;;;3.22;1.33;;;;;;;22.64;58.35;99720.22;5013825;28;20065;-64
2021/06/19 01:51:27;;;;;;;2.22;1.30;;;;;;;22.62;58.55;99736.13;4997335;28;20465;-64
2021/06/19 01:53:53;;;;;;;1.67;1.20;;;;;;;22.60;58.22;99722.09;5014577;28;20114;-64
2021/06/19 01:56:19;;;;;;;1.70;1.42;;;;;;;22.61;58.39;99730.91;5014480;28;20416;-63
2021/06/19 01:58:45;;;;;;;1.33;1.20;;;;;;;22.59;58.38;99723.03;5013522;28;20037;-64
2021/06/19 02:01:16;;;;;;;3.42;1.10;;;;;;;22.58;58.17;99725.75;5013712;28;20481;-62
2021/06/19 02:03:47;;;;;;;2.75;1.40;;;;;;;22.57;58.35;99732.81;4996538;28;20140;-65
2021/06/19 02:06:18;;;;;;;1.83;1.33;;;;;;;22.56;58.33;99732.84;4996859;28;20037;-62
2021/06/19 02:08:59;;;;;;;1.75;1.45;;;;;;;22.54;58.38;99732.03;5013546;28;20080;-63
2021/06/19 02:11:25;;;;;;;7.38;1.98;;;;;;;22.53;58.70;99733.84;5013655;28;20073;-63
2021/06/19 02:13:50;;;;;;;6.18;1.63;;;;;;;22.49;58.73;99735.75;5014402;28;20034;-65
2021/06/19 02:16:16;;;;;;;3.13;1.50;;;;;;;22.48;58.53;99736.66;5014083;28;20050;-64
2021/06/19 02:18:47;;;;;;;3.80;1.77;;;;;;;22.45;58.92;99739.41;5014415;28;20038;-64
2021/06/19 02:21:12;;;;;;;2.83;1.60;;;;;;;22.44;58.55;99742.97;4996801;28;20038;-64
2021/06/19 02:23:38;;;;;;;2.15;1.52;;;;;;;22.43;58.77;99749.16;5014287;28;20045;-64
2021/06/19 02:26:03;;;;;;;2.40;1.40;;;;;;;22.41;58.63;99735.13;5014206;28;20038;-65
2021/06/19 02:28:29;;;;;;;3.00;1.35;;;;;;;22.39;58.81;99739.59;5013043;28;20041;-64
2021/06/19 02:30:58;;;;;;;4.65;1.60;;;;;;;22.37;58.85;99746.72;5012918;28;20048;-64
2021/06/19 02:33:24;;;;;;;3.80;1.90;;;;;;;22.35;58.95;99738.88;5012544;28;20036;-64
2021/06/19 02:35:51;;;;;;;2.00;1.58;;;;;;;22.36;58.81;99745.00;4996174;28;20038;-64
2021/06/19 02:38:18;;;;;;;4.00;1.58;;;;;;;22.33;58.84;99743.34;4996131;28;20072;-64
2021/06/19 02:40:45;;;;;;;1.75;1.50;;;;;;;22.32;58.95;99743.41;5014391;28;20046;-64
2021/06/19 02:43:12;;;;;;;2.05;1.30;;;;;;;22.32;59.05;99741.63;5013115;28;20036;-65
2021/06/19 02:45:38;;;;;;;2.83;1.63;;;;;;;22.29;59.05;99748.78;5012895;28;20129;-64
2021/06/19 02:48:04;;;;;;;3.50;1.45;;;;;;;22.29;59.08;99746.16;5013903;28;20029;-64
2021/06/19 02:50:32;;;;;;;3.88;1.85;;;;;;;22.27;58.88;99751.47;4996759;28;20061;-62
2021/06/19 02:53:05;;;;;;;2.60;1.80;;;;;;;22.24;59.01;99745.47;5013857;28;20034;-63
2021/06/19 02:55:39;;;;;;;2.25;1.50;;;;;;;22.23;58.92;99749.00;4996701;28;20065;-64
2021/06/19 02:58:10;;;;;;;;;;;;;;;22.16;58.93;99754.53;5014186;28;20037;-64
2021/06/19 03:00:39;;;;;;;2.05;1.58;;;;;;;22.18;59.23;99757.97;4995916;28;19920;-63
2021/06/19 03:03:09;;;;;;;2.17;1.80;;;;;;;22.19;59.26;99758.84;5012448;28;20582;-64
2021/06/19 03:05:38;;;;;;;3.97;2.00;;;;;;;22.18;59.21;99760.63;5013666;28;20034;-63
2021/06/19 03:08:07;;;;;;;2.75;1.80;;;;;;;22.19;59.18;99770.22;5013882;28;20117;-64
2021/06/19 03:10:43;;;;;;;3.30;1.92;;;;;;;22.17;59.12;99764.19;4996009;28;20034;-64
2021/06/19 03:13:09;;;;;;;2.05;1.85;;;;;;;22.14;59.28;99769.56;4996351;28;20038;-65
2021/06/19 03:15:37;;;;;;;1.90;1.70;;;;;;;22.13;59.32;99774.88;5013838;28;20107;-63
2021/06/19 03:18:03;;;;;;;3.53;1.65;;;;;;;22.12;59.38;99763.47;5012187;28;20080;-64
2021/06/19 03:20:29;;;;;;;1.73;1.60;;;;;;;22.12;59.31;99768.75;5013648;28;20034;-63
2021/06/19 03:22:57;;;;;;;1.40;1.25;;;;;;;22.10;59.20;99770.56;5013707;28;20038;-63
2021/06/19 03:25:34;;;;;;;4.53;1.80;;;;;;;22.09;59.54;99766.22;5012188;28;20038;-64
2021/06/19 03:28:03;;;;;;;2.65;1.60;;;;;;;22.08;59.45;99763.66;5013868;28;20046;-64
2021/06/19 03:30:37;;;;;;;1.70;1.42;;;;;;;22.05;59.18;99777.78;5012321;28;20040;-64
2021/06/19 03:33:05;;;;;;;;;;;;;;;22.01;59.15;99784.97;5013715;28;20034;-62
2021/06/19 03:35:32;;;;;;;3.95;1.60;;;;;;;22.02;59.48;99780.56;4995958;28;19999;-62
2021/06/19 03:38:00;;;;;;;3.42;1.35;;;;;;;22.01;59.39;99781.47;5012050;28;20129;-65
2021/06/19 03:40:28;;;;;;;1.80;1.50;;;;;;;22.01;59.57;99786.75;5013932;28;20038;-64
2021/06/19 03:42:55;;;;;;;3.03;1.70;;;;;;;22.01;59.53;99781.47;4995753;28;20490;-63
2021/06/19 03:45:23;;;;;;;2.88;1.42;;;;;;;22.00;59.57;99780.59;5012070;28;20038;-63
2021/06/19 03:47:56;;;;;;;3.97;1.80;;;;;;;21.98;59.47;99776.31;4996240;28;20034;-63
2021/06/19 03:50:27;;;;;;;3.78;2.22;;;;;;;21.97;59.67;99780.69;5017549;28;20038;-64
2021/06/19 03:52:54;;;;;;;1.90;1.70;;;;;;;21.96;59.62;99788.69;5015703;28;20068;-63
2021/06/19 03:55:26;;;;;;;3.65;1.67;;;;;;;21.95;59.77;99779.03;4999990;28;20378;-63
2021/06/19 03:57:53;;;;;;;2.13;1.70;;;;;;;21.93;59.72;99791.41;4999848;28;20481;-63
2021/06/19 04:00:23;;;;;;;1.88;1.67;;;;;;;21.91;59.61;99783.56;5016866;28;20038;-64
2021/06/19 04:02:49;;;;;;;2.17;1.85;;;;;;;21.89;59.86;99795.94;5015459;28;20050;-63
2021/06/19 04:05:18;;;;;;;3.10;1.75;;;;;;;21.86;59.78;99789.03;5016370;28;20045;-63
2021/06/19 04:07:49;;;;;;;2.75;1.70;;;;;;;21.85;59.93;99789.94;5015814;28;20038;-63
2021/06/19 04:10:18;;;;;;;3.47;1.63;;;;;;;21.83;59.84;99788.25;5015454;28;20492;-64
2021/06/19 04:12:44;;;;;;;2.78;1.30;;;;;;;21.81;59.73;99782.16;5015262;28;20088;-64
2021/06/19 04:15:13;;;;;;;5.47;1.40;;;;;;;21.79;59.77;99789.28;5015175;28;20456;-64
2021/06/19 04:17:44;;;;;;;4.82;1.60;;;;;;;21.77;59.95;99793.75;5015384;28;20089;-64
2021/06/19 04:20:15;;;;;;;2.50;1.40;;;;;;;21.76;60.03;99792.88;5016915;28;20488;-63
2021/06/19 04:22:42;;;;;;;2.25;1.55;;;;;;;21.74;59.94;99799.97;5015723;28;20149;-63
2021/06/19 04:25:16;;;;;;;2.47;1.40;;;;;;;21.74;60.08;99805.25;5015348;28;20378;-62
2021/06/19 04:27:46;;;;;;;2.25;1.75;;;;;;;21.72;59.91;99802.66;4999151;28;20042;-63
2021/06/19 04:30:19;;;;;;;2.22;1.80;;;;;;;21.71;59.96;99808.00;4998748;28;20030;-63
2021/06/19 04:32:45;;;;;;;4.40;1.60;;;;;;;21.71;60.12;99806.22;5015370;28;20034;-64
2021/06/19 04:35:15;;;;;;;2.38;2.00;;;;;;;21.70;60.07;99811.56;5016448;28;20042;-64
2021/06/19 04:37:42;;;;;;;3.60;2.15;;;;;;;21.70;60.13;99811.56;5014865;28;20108;-63
2021/06/19 04:43:05;;;;;;;4.80;1.95;;;;;;;21.68;60.39;99823.94;5015733;28;20038;-64
2021/06/19 04:45:42;;;;;;;4.15;2.03;;;;;;;21.68;60.21;99824.78;5016651;28;20045;-64
2021/06/19 04:48:08;;;;;;;2.78;1.90;;;;;;;21.70;60.37;99824.75;5016344;28;20038;-63
2021/06/19 04:50:40;;;;;;;2.38;1.88;;;;;;;21.69;60.25;99823.00;5015660;28;20486;-63
2021/06/19 04:53:06;;;;;;;5.40;2.83;;;;;;;21.68;60.50;99822.13;4998728;28;20050;-63
2021/06/19 04:55:40;;;;;;;3.13;1.90;;;;;;;21.69;60.42;99828.28;4998463;28;20409;-63
2021/06/19 04:58:09;;;;;;;5.03;2.60;;;;;;;21.69;60.44;99825.66;5014810;28;20513;-63
2021/06/19 05:00:35;;;;;;;3.00;2.00;;;;;;;21.70;60.42;99832.66;5015128;28;20110;-63
2021/06/19 05:03:02;;;;;;;2.88;2.17;;;;;;;21.70;60.60;99840.56;5014522;28;20050;-64
2021/06/19 05:05:36;;;;;;;3.50;2.40;;;;;;;21.70;60.61;99851.13;5014528;28;20049;-63
2021/06/19 05:08:06;;;;;;;4.30;2.42;;;;;;;21.69;60.39;99852.88;4998231;28;20042;-64
2021/06/19 05:10:32;;;;;;;3.28;2.10;;;;;;;21.68;60.54;99848.50;4998077;28;20034;-62
2021/06/19 05:13:00;;;;;;;4.90;2.30;;;;;;;21.67;60.57;99846.78;5014794;28;20041;-64
2021/06/19 05:15:26;;;;;;;3.22;2.53;;;;;;;21.67;60.65;99849.41;5015515;28;20125;-63
2021/06/19 05:17:55;;;;;;;5.85;2.58;;;;;;;21.66;60.55;99854.75;5015431;28;20450;-62
2021/06/19 05:20:27;;;;;;;3.55;3.13;;;;;;;21.68;60.64;99863.47;5014493;28;20030;-63
2021/06/19 05:22:57;;;;;;;3.50;2.60;;;;;;;21.67;60.67;99867.03;4998619;28;20405;-64
2021/06/19 05:25:29;;;;;;;3.42;2.72;;;;;;;21.66;60.70;99866.16;4998514;28;20076;-64
2021/06/19 05:27:57;;;;;;;4.38;3.03;;;;;;;21.67;60.82;99861.75;5014322;28;20133;-64
2021/06/19 05:30:26;;;;;;;6.95;2.83;;;;;;;21.66;60.79;99854.75;4997676;28;20516;-63
2021/06/19 05:32:54;;;;;;;4.53;3.10;;;;;;;21.67;60.78;99856.47;5014370;28;20073;-63
2021/06/19 05:35:25;;;;;;;8.02;4.55;;;;;;;21.66;60.73;99868.78;5013539;28;20507;-63
2021/06/19 05:37:54;;;;;;;6.45;5.55;;;;;;;21.66;60.98;99868.78;5014935;28;20405;-63
2021/06/19 05:40:22;;;;;;;6.07;5.07;;;;;;;21.68;60.84;99863.47;5013846;28;20472;-65
2021/06/19 05:42:48;;;;;;;6.85;4.50;;;;;;;21.68;61.02;99863.47;5014234;28;20050;-63
2021/06/19 05:45:17;;;;;;;4.43;4.03;;;;;;;21.67;60.83;99867.03;5014893;28;20045;-64
2021/06/19 05:47:51;;;;;;;6.70;3.65;;;;;;;21.67;60.92;99862.59;5013698;28;20053;-63
2021/06/19 05:50:20;;;;;;;5.85;3.45;;;;;;;21.67;60.96;99864.41;4997224;28;20033;-63
2021/06/19 05:52:49;;;;;;;3.78;3.05;;;;;;;21.64;60.91;99862.72;5014496;28;20414;-62
2021/06/19 05:55:20;;;;;;;6.18;3.22;;;;;;;21.64;60.95;99867.13;5013483;28;20061;-63
2021/06/19 05:57:48;;;;;;;3.70;2.38;;;;;;;21.63;61.05;99863.63;5013865;28;20034;-65
2021/06/19 06:00:15;;;;;;;3.85;2.88;;;;;;;21.62;61.02;99874.22;5014714;28;20070;-64
2021/06/19 06:02:44;;;;;;;7.10;3.08;;;;;;;21.60;60.91;99876.91;5013829;28;20049;-64
2021/06/19 06:05:11;;;;;;;2.67;2.30;;;;;;;21.60;60.98;99875.13;5013742;28;20129;-64
2021/06/19 06:07:40;;;;;;;5.35;2.40;;;;;;;21.61;60.90;99865.47;5013529;28;20041;-62
2021/06/19 06:10:10;;;;;;;3.45;2.60;;;;;;;21.58;61.17;99869.00;4997019;28;20103;-64
2021/06/19 06:12:45;;;;;;;6.60;2.70;;;;;;;21.58;61.00;99863.72;5013281;28;20037;-64
2021/06/19 06:15:13;;;;;;;3.80;2.50;;;;;;;21.60;61.02;99872.50;4997217;28;20041;-63
2021/06/19 06:17:47;;;;;;;2.63;2.05;;;;;;;21.60;61.13;99876.91;4997727;28;20085;-65
2021/06/19 06:20:16;;;;;;;6.55;2.50;;;;;;;21.59;61.08;99868.09;4996625;28;20041;-64
2021/06/19 06:22:47;;;;;;;5.35;2.45;;;;;;;21.59;61.08;99868.09;5013190;28;20041;-63
2021/06/19 06:25:13;;;;;;;3.22;2.25;;;;;;;21.60;61.21;99866.38;5013044;28;20563;-63
2021/06/19 06:27:41;;;;;;;4.18;2.30;;;;;;;21.60;61.18;99861.94;5013318;28;20037;-62
2021/06/19 06:30:10;;;;;;;2.85;2.30;;;;;;;21.61;61.28;99862.81;4997154;28;20034;-62
2021/06/19 06:32:42;;;;;;;2.83;2.13;;;;;;;21.59;61.17;99854.91;4996890;28;20045;-63
2021/06/19 06:35:11;;;;;;;8.25;2.75;;;;;;;21.58;61.21;99855.81;5014207;28;20065;-62
2021/06/19 06:37:43;;;;;;;2.70;2.17;;;;;;;21.59;61.10;99854.06;4996749;28;20063;-63
2021/06/19 06:40:15;;;;;;;2.88;2.40;;;;;;;21.58;61.11;99861.09;5014406;28;20037;-63
2021/06/19 06:42:46;;;;;;;2.70;1.92;;;;;;;21.59;61.22;99859.34;5014291;28;20053;-64
2021/06/19 06:45:13;;;;;;;3.42;2.47;;;;;;;21.59;61.37;99856.69;5013703;28;20044;-62
2021/06/19 06:47:47;;;;;;;3.75;1.90;;;;;;;21.59;61.47;99857.53;5012852;28;20029;-62
2021/06/19 06:50:16;;;;;;;2.83;2.45;;;;;;;21.60;61.46;99847.91;5013920;28;20532;-63
2021/06/19 06:52:52;;;;;;;8.45;3.00;;;;;;;21.59;61.15;99854.91;5014280;28;20485;-63
2021/06/19 06:55:24;;;;;;;2.45;2.15;;;;;;;21.59;61.33;99852.28;4996199;28;20113;-64
2021/06/19 06:57:55;;;;;;;3.70;2.42;;;;;;;21.59;61.44;99851.44;4996422;28;20049;-63
2021/06/19 07:00:26;;;;;;;2.70;2.10;;;;;;;21.60;61.29;99848.75;5012298;28;20042;-64
2021/06/19 07:03:00;;;;;;;4.35;2.20;;;;;;;21.60;61.50;99850.56;4995922;28;20489;-63
2021/06/19 07:05:31;;;;;;;;;;;;;;;21.59;61.09;99848.78;5013084;28;20144;-63
2021/06/19 07:07:59;;;;;;;3.87;2.17;;;;;;;21.60;61.27;99843.50;5012584;28;20288;-64
2021/06/19 07:10:32;;;;;;;3.33;1.92;;;;;;;21.63;61.46;99850.47;5013391;28;20288;-63
2021/06/19 07:13:03;;;;;;;3.05;2.20;;;;;;;21.65;61.40;99847.75;4996472;28;20077;-64
2021/06/19 07:15:32;;;;;;;3.13;2.00;;;;;;;21.67;61.26;99848.56;5013135;28;20100;-62
2021/06/19 07:18:06;;;;;;;5.25;2.58;;;;;;;21.66;61.58;99836.28;5013624;28;20559;-63
2021/06/19 07:20:34;;;;;;;3.67;2.53;;;;;;;21.68;61.44;99839.75;4995740;28;20092;-64
2021/06/19 07:23:05;;;;;;;5.60;2.08;;;;;;;21.68;61.36;99837.13;5013281;28;20088;-64
2021/06/19 07:25:36;;;;;;;4.45;2.08;;;;;;;21.66;61.47;99844.22;5000302;28;20042;-63
2021/06/19 07:28:07;;;;;;;4.25;2.28;;;;;;;21.68;61.34;99842.38;5016271;28;20034;-63
2021/06/19 07:30:42;;;;;;;2.65;2.13;;;;;;;21.67;61.49;99851.22;5016418;28;20089;-63
2021/06/19 07:33:11;;;;;;;18.55;2.35;;;;;;;21.69;61.37;99858.16;5016641;28;20038;-62
2021/06/19 07:35:41;;;;;;;7.50;2.35;;;;;;;21.70;61.43;99859.03;5015926;28;20512;-63
2021/06/19 07:38:18;;;;;;;4.45;2.30;;;;;;;21.70;61.53;99856.38;5016378;28;20096;-64
2021/06/19 07:40:46;;;;;;;3.08;1.98;;;;;;;21.70;61.33;99854.59;4999683;28;20048;-63
2021/06/19 07:43:18;;;;;;;2.83;2.00;;;;;;;21.71;61.39;99858.97;5017446;28;20030;-64
2021/06/19 07:45:43;;;;;;;2.47;1.92;;;;;;;21.70;61.76;99859.88;4999778;28;20478;-64
2021/06/19 07:48:17;;;;;;;3.72;2.38;;;;;;;21.72;61.46;99868.59;5016146;28;20034;-63
2021/06/19 07:50:50;;;;;;;2.33;2.13;;;;;;;21.74;61.40;99865.91;5015744;28;20061;-63
2021/06/19 07:53:18;;;;;;;4.03;2.40;;;;;;;21.74;61.42;99866.78;5015908;28;20069;-63
2021/06/19 07:55:47;;;;;;;4.60;2.47;;;;;;;21.76;61.54;99856.16;5016009;28;20037;-63
2021/06/19 07:58:12;;;;;;;2.78;2.13;;;;;;;21.79;61.63;99857.84;4999465;28;20080;-62
2021/06/19 08:00:43;;;;;;;3.55;2.10;;;;;;;21.79;61.76;99850.78;5015905;28;20057;-64
2021/06/19 08:03:14;;;;;;;4.68;1.77;;;;;;;21.80;61.62;99857.78;4999001;28;20133;-64
2021/06/19 08:05:43;;;;;;;3.80;1.98;;;;;;;21.81;61.60;99859.53;5015590;28;20096;-62
2021/06/19 08:08:08;;;;;;;4.65;2.72;;;;;;;21.80;61.59;99857.78;4999626;28;20053;-62
2021/06/19 08:10:44;;;;;;;4.78;2.33;;;;;;;21.82;61.43;99866.53;5015396;28;20030;-63
2021/06/19 08:13:10;;;;;;;3.17;2.30;;;;;;;21.82;61.53;99870.91;5015751;28;20117;-64
2021/06/19 08:15:39;;;;;;;3.55;2.42;;;;;;;21.83;61.54;99872.66;5016431;28;20225;-63
2021/06/19 08:18:05;;;;;;;3.10;2.13;;;;;;;21.83;61.53;99873.53;4999211;28;20037;-64
2021/06/19 08:20:42;;;;;;;3.30;2.25;;;;;;;21.84;61.57;99858.53;4999446;28;20068;-64
2021/06/19 08:23:16;;;;;;;3.30;2.47;;;;;;;21.85;61.52;99860.28;5015602;28;20046;-64
2021/06/19 08:25:48;;;;;;;3.70;2.38;;;;;;;21.85;61.65;99855.00;5015513;28;20128;-63
2021/06/19 08:28:19;;;;;;;3.50;2.20;;;;;;;21.86;61.62;99849.69;5016767;28;20041;-64
2021/06/19 08:30:47;;;;;;;5.05;2.20;;;;;;;21.88;61.68;99842.56;4999230;28;20515;-63
2021/06/19 08:33:13;;;;;;;2.90;2.22;;;;;;;21.89;61.64;99836.38;5016128;28;20109;-63
2021/06/19 08:35:41;;;;;;;5.13;2.40;;;;;;;21.92;61.79;99834.53;5016479;28;20065;-64
2021/06/19 08:38:15;;;;;;;3.95;2.20;;;;;;;21.92;61.63;99830.16;5016219;28;20026;-64
2021/06/19 08:40:46;;;;;;;4.82;2.33;;;;;;;21.93;61.75;99829.22;4998964;28;20088;-63
2021/06/19 08:43:18;;;;;;;3.88;2.30;;;;;;;21.95;61.77;99837.09;5014645;28;20034;-63
2021/06/19 08:45:49;;;;;;;3.13;2.30;;;;;;;21.96;61.52;99831.75;4998424;28;20037;-62
2021/06/19 08:48:22;;;;;;;2.75;2.17;;;;;;;21.98;61.61;99832.56;5015335;28;20034;-63
2021/06/19 08:50:57;;;;;;;4.65;2.38;;;;;;;22.00;61.73;99829.88;5015948;28;20398;-64
2021/06/19 08:53:26;;;;;;;4.72;2.10;;;;;;;22.01;61.66;99828.97;5015943;28;20548;-62
2021/06/19 08:55:54;;;;;;;3.35;2.10;;;;;;;22.03;61.56;99835.91;4998195;28;20441;-64
2021/06/19 08:58:25;;;;;;;2.90;2.10;;;;;;;22.05;61.52;99823.53;5016220;28;20044;-64
2021/06/19 09:00:54;;;;;;;2.90;2.30;;;;;;;22.07;61.69;99822.59;4998290;28;20038;-62
2021/06/19 09:03:27;;;;;;;2.30;1.85;;;;;;;22.09;61.54;99816.34;5014433;28;20068;-62
2021/06/19 09:06:13;;;;;;;;;;;;;;;22.11;61.43;99821.59;4998658;28;20137;-64
2021/06/19 09:09:06;;;;;;;3.17;2.10;;;;;;;22.11;61.58;99821.59;5015682;28;19917;-64
2021/06/19 09:11:36;;;;;;;2.88;2.10;;;;;;;22.14;61.67;99834.66;5015746;28;20061;-63
2021/06/19 09:14:11;;;;;;;3.20;1.90;;;;;;;22.15;61.66;99837.25;4998074;28;20034;-62
2021/06/19 09:16:41;;;;;;;3.05;2.22;;;;;;;22.17;61.65;99835.44;5015442;28;20034;-66
2021/06/19 09:19:44;;;;;;;4.07;1.98;;;;;;;22.18;61.42;99834.50;4998252;28;20080;-65
2021/06/19 09:22:13;;;;;;;4.28;2.40;;;;;;;22.20;61.63;99823.91;4974699;28;20089;-62
2021/06/19 09:24:58;;;;;;;3.17;2.30;;;;;;;22.21;61.60;99826.47;4987193;28;20046;-64
2021/06/19 09:27:42;;;;;;;3.72;2.45;;;;;;;22.21;61.58;99826.47;5015621;28;20556;-62
2021/06/19 09:30:22;;;;;;;5.47;2.90;;;;;;;22.24;61.65;99824.63;5015441;28;20061;-63
2021/06/19 09:32:54;;;;;;;3.42;2.38;;;;;;;22.25;61.65;99832.50;5014276;28;20106;-64
2021/06/19 09:35:38;;;;;;;4.00;2.30;;;;;;;22.25;61.51;99821.09;4997768;28;20410;-63
2021/06/19 09:38:16;;;;;;;2.22;1.88;;;;;;;22.24;61.57;99811.44;5014334;28;20511;-63
2021/06/19 09:40:46;;;;;;;2.50;2.03;;;;;;;22.26;61.70;99814.88;5015698;28;20535;-62
2021/06/19 09:43:20;;;;;;;3.47;2.20;;;;;;;22.26;61.43;99806.97;5015150;28;20030;-64
2021/06/19 09:46:03;;;;;;;2.80;2.13;;;;;;;22.28;61.55;99807.78;4996856;28;20561;-64
2021/06/19 09:48:35;;;;;;;3.13;2.22;;;;;;;22.30;61.58;99804.16;5013933;28;20041;-63
2021/06/19 09:51:13;;;;;;;3.60;2.30;;;;;;;22.32;61.51;99804.13;5014338;28;20481;-63
2021/06/19 09:53:43;;;;;;;2.70;2.20;;;;;;;22.32;61.58;99797.03;5014787;28;20045;-64
2021/06/19 09:56:17;;;;;;;2.42;2.08;;;;;;;22.35;61.64;99801.34;4997251;28;20183;-63
2021/06/19 09:58:44;;;;;;;3.22;2.38;;;;;;;22.37;61.56;99802.16;5013435;28;20042;-63
2021/06/19 10:01:20;;;;;;;4.68;2.25;;;;;;;22.38;61.65;99798.59;5014912;28;20111;-63
2021/06/19 10:04:02;;;;;;;3.63;2.33;;;;;;;22.40;61.60;99782.72;5013350;28;20049;-63
2021/06/19 10:06:32;;;;;;;3.40;2.13;;;;;;;22.43;61.56;99790.53;5013777;28;20481;-63
2021/06/19 10:08:59;;;;;;;2.70;2.35;;;;;;;22.46;61.70;99787.78;4996903;28;20078;-63
2021/06/19 10:11:27;;;;;;;3.40;2.55;;;;;;;22.45;61.63;99778.13;5013471;28;20045;-64
2021/06/19 10:13:57;;;;;;;2.85;2.30;;;;;;;22.47;61.53;99786.88;5013960;28;20109;-63
2021/06/19 10:16:29;;;;;;;2.80;2.30;;;;;;;22.48;61.49;99785.94;5013451;28;20525;-64
2021/06/19 10:18:58;;;;;;;3.05;2.42;;;;;;;22.49;61.48;99778.00;5014506;28;20111;-64
2021/06/19 10:21:27;;;;;;;4.90;2.63;;;;;;;22.50;61.45;99777.03;4996960;28;20033;-64
2021/06/19 10:23:59;;;;;;;4.20;2.42;;;;;;;22.53;61.59;99781.38;5013607;28;20627;-62
2021/06/19 10:26:30;;;;;;;2.88;2.50;;;;;;;22.54;61.55;99769.00;5014839;28;20071;-64
2021/06/19 10:29:02;;;;;;;4.28;2.45;;;;;;;22.55;61.53;99770.75;5014402;28;20041;-63
2021/06/19 10:31:40;;;;;;;3.80;2.38;;;;;;;22.57;61.58;99774.19;5014282;28;20037;-64
2021/06/19 10:34:22;;;;;;;5.38;3.13;;;;;;;22.58;61.75;99767.97;5012831;28;20042;-63
2021/06/19 10:36:49;;;;;;;5.45;2.85;;;;;;;22.62;61.49;99777.53;4996649;28;20037;-63
2021/06/19 10:39:31;;;;;;;11.68;3.15;;;;;;;22.63;61.63;99763.41;4996812;28;20149;-63
2021/06/19 10:42:04;;;;;;;6.60;2.80;;;;;;;22.65;61.65;99754.47;4996613;28;20038;-63
2021/06/19 10:44:49;;;;;;;3.85;2.50;;;;;;;22.67;61.66;99749.13;4996491;28;20041;-63
2021/06/19 10:47:17;;;;;;;3.50;3.10;;;;;;;22.70;61.64;99756.09;5013074;28;20079;-63
2021/06/19 10:49:46;;;;;;;4.57;2.85;;;;;;;22.70;61.57;99742.88;4997209;28;20121;-64
2021/06/19 10:52:27;;;;;;;4.03;3.10;;;;;;;22.70;61.42;99743.75;4996415;28;20083;-63
2021/06/19 10:55:07;;;;;;;7.20;3.30;;;;;;;22.70;61.56;99746.38;4996136;28;20119;-64
2021/06/19 10:57:48;;;;;;;5.97;3.13;;;;;;;22.70;61.46;99751.66;5012549;28;20474;-63
2021/06/19 11:00:36;;;;;;;6.82;3.80;;;;;;;22.71;61.38;99755.19;5013512;28;20052;-63
2021/06/19 11:03:09;;;;;;;4.28;3.00;;;;;;;22.71;61.63;99748.09;4996415;28;20054;-64
2021/06/19 11:05:44;;;;;;;5.18;3.45;;;;;;;22.70;61.64;99738.44;5012324;28;20092;-64
2021/06/19 11:08:17;;;;;;;6.20;3.20;;;;;;;22.70;61.70;99727.88;4995820;28;20048;-64
2021/06/19 11:10:51;;;;;;;4.23;2.77;;;;;;;22.71;61.64;99723.47;4996401;28;20076;-64
2021/06/19 11:13:28;;;;;;;;;;;;;;;22.69;61.65;99725.31;5013268;28;20375;-63
2021/06/19 11:16:01;;;;;;;6.53;3.20;;;;;;;22.69;61.72;99728.81;5013647;28;20365;-63
2021/06/19 11:18:50;;;;;;;6.43;3.17;;;;;;;22.71;61.58;99731.41;5012818;28;20030;-63
2021/06/19 11:21:33;;;;;;;4.82;3.22;;;;;;;22.72;61.56;99736.63;4995871;28;20056;-63
2021/06/19 11:24:04;;;;;;;6.32;3.25;;;;;;;22.75;61.46;99740.91;5012605;28;20030;-64
2021/06/19 11:26:56;;;;;;;6.38;3.15;;;;;;;22.76;61.57;99745.28;5012404;28;20125;-63
2021/06/19 11:29:38;;;;;;;6.65;3.58;;;;;;;22.77;61.67;99741.72;4996723;28;20092;-62
2021/06/19 11:32:24;;;;;;;8.02;2.92;;;;;;;22.79;61.49;99739.88;4995778;28;20034;-64
2021/06/19 11:35:03;;;;;;;9.20;3.47;;;;;;;22.80;61.70;99745.13;4995832;28;20045;-64
2021/06/19 11:37:51;;;;;;;6.20;3.00;;;;;;;22.83;61.52;99748.53;5013195;28;20046;-64
2021/06/19 11:40:42;;;;;;;6.85;3.40;;;;;;;22.84;61.45;99739.69;5013885;28;20083;-64
2021/06/19 11:43:10;;;;;;;5.40;3.08;;;;;;;22.86;61.64;99748.41;5013440;28;20046;-64
2021/06/19 11:45:41;;;;;;;5.93;3.42;;;;;;;22.88;61.55;99741.28;4995820;28;20509;-65
2021/06/19 11:48:11;;;;;;;5.22;3.50;;;;;;;22.90;61.56;99742.09;5012237;28;20045;-64
2021/06/19 11:50:45;;;;;;;4.20;2.75;;;;;;;22.91;61.72;99741.19;5012222;28;20034;-63
2021/06/19 11:53:26;;;;;;;3.83;2.95;;;;;;;22.92;61.53;99748.19;5013442;28;20473;-63